CheckWX is a tool to help pilots better visualize weather data.  It is not intended as a substitute for an official pre-flight weather briefing.

13:19:46 UTC

ESNS TAF
Skellefteå Airport
Skellefteå, Sweden
TAF ESNS 161130Z 1612/1621 08008KT CAVOK

Jun-16@
12:00 UTC

Jun-16 @ 12:00 UTC

Jun-16@
21:00 UTC

Jun-16 @ 21:00 UTC

TAF ESNS 161130Z 1612/1621 08008KT CAVOK
Wind
  • 080° at 8 KTS
Conditions
No significant weather
Cloud Levels
  • No significant clouds